createdAt,value
2023-03-23T15:59:13.529Z,18.24
2023-03-23T16:01:42.499Z,18.30
2023-03-23T16:04:13.367Z,18.28
2023-03-23T16:06:39.950Z,18.13
2023-03-23T16:09:07.770Z,18.01
2023-03-23T16:11:34.467Z,18.01
2023-03-23T16:14:02.355Z,17.92
2023-03-23T16:16:34.407Z,17.88
2023-03-23T16:19:01.007Z,17.84
2023-03-23T16:21:27.843Z,17.73
2023-03-23T16:23:54.679Z,17.58
2023-03-23T16:26:21.308Z,17.35
2023-03-23T16:28:47.911Z,17.25
2023-03-23T16:31:14.590Z,17.16
2023-03-23T16:33:41.599Z,17.01
2023-03-23T16:36:11.844Z,16.86
2023-03-23T16:38:49.612Z,16.79
2023-03-23T16:41:17.682Z,16.73
2023-03-23T16:43:44.390Z,16.56
2023-03-23T16:46:13.352Z,16.50
2023-03-23T16:48:40.717Z,16.44
2023-03-23T16:51:07.550Z,16.32
2023-03-23T16:53:34.286Z,16.12
2023-03-23T16:56:00.853Z,15.94
2023-03-23T16:58:27.548Z,15.88
2023-03-23T17:00:54.232Z,15.78
2023-03-23T17:03:22.329Z,15.66
2023-03-23T17:05:51.179Z,15.51
2023-03-23T17:08:19.259Z,15.39
2023-03-23T17:10:46.474Z,15.21
2023-03-23T17:13:13.465Z,15.14
2023-03-23T17:15:43.637Z,15.11
2023-03-23T17:18:11.857Z,14.98
2023-03-23T17:20:38.759Z,14.90
2023-03-23T17:23:05.932Z,14.80
2023-03-23T17:25:32.589Z,14.78
2023-03-23T17:28:05.822Z,14.62
2023-03-23T17:30:33.914Z,14.51
2023-03-23T17:33:00.682Z,14.40
2023-03-23T17:35:27.314Z,14.38
2023-03-23T17:37:53.883Z,14.26
2023-03-23T17:40:20.562Z,14.17
2023-03-23T17:42:47.149Z,14.01
2023-03-23T17:45:13.764Z,13.82
2023-03-23T17:47:40.519Z,13.68
2023-03-23T17:50:11.889Z,13.68
2023-03-23T17:52:40.491Z,13.76
2023-03-23T17:55:08.194Z,13.70
2023-03-23T17:57:35.277Z,13.64
2023-03-23T18:00:02.527Z,13.65
2023-03-23T18:02:29.114Z,13.59
2023-03-23T18:04:58.248Z,13.65
2023-03-23T18:07:24.893Z,13.53
2023-03-23T18:09:51.419Z,13.35
2023-03-23T18:12:18.532Z,13.33
2023-03-23T18:14:45.202Z,13.37
2023-03-23T18:17:11.759Z,13.39
2023-03-23T18:19:38.414Z,13.27
2023-03-23T18:22:04.994Z,13.17
2023-03-23T18:24:31.690Z,13.21
2023-03-23T18:27:00.192Z,13.13
2023-03-23T18:29:26.802Z,13.18
2023-03-23T18:31:53.486Z,13.12
2023-03-23T18:34:20.519Z,13.12
2023-03-23T18:36:47.103Z,13.03
2023-03-23T18:39:13.747Z,13.00
2023-03-23T18:41:40.415Z,13.03
2023-03-23T18:44:07.013Z,12.88
2023-03-23T18:46:33.785Z,12.76
2023-03-23T18:49:00.418Z,12.65
2023-03-23T18:51:27.061Z,12.61
2023-03-23T18:53:53.731Z,12.61
2023-03-23T18:56:20.764Z,12.67
2023-03-23T18:58:47.330Z,12.65
2023-03-23T19:01:17.212Z,12.69
2023-03-23T19:03:45.370Z,12.65
2023-03-23T19:06:21.090Z,12.61
2023-03-23T19:08:48.957Z,12.72
2023-03-23T19:11:16.244Z,12.76
2023-03-23T19:13:53.823Z,12.74
2023-03-23T19:16:25.396Z,12.69
2023-03-23T19:18:52.016Z,12.57
2023-03-23T19:21:21.258Z,12.50
2023-03-23T19:23:51.836Z,12.41
2023-03-23T19:26:33.150Z,12.22
2023-03-23T19:31:31.804Z,12.05
2023-03-23T19:33:58.636Z,12.08
2023-03-23T19:36:26.570Z,12.00
2023-03-23T19:38:54.581Z,11.92
2023-03-23T19:41:21.976Z,11.83
2023-03-23T19:43:48.439Z,11.72
2023-03-23T19:46:15.128Z,11.64
2023-03-23T19:48:41.801Z,11.66
2023-03-23T19:51:10.311Z,11.64
2023-03-23T19:53:36.972Z,11.41
2023-03-23T19:56:05.068Z,11.11
2023-03-23T19:58:32.550Z,10.97
2023-03-23T20:01:01.300Z,10.82
2023-03-23T20:03:28.477Z,10.81
2023-03-23T20:06:02.919Z,10.80
2023-03-23T20:08:31.316Z,10.57
2023-03-23T20:11:04.377Z,10.64
2023-03-23T20:13:31.434Z,10.62
2023-03-23T20:16:00.540Z,10.72
2023-03-23T20:18:29.157Z,10.77
2023-03-23T20:21:06.796Z,10.74
2023-03-23T20:23:34.771Z,10.73
2023-03-23T20:26:05.916Z,10.66
2023-03-23T20:28:32.834Z,10.79
2023-03-23T20:31:21.072Z,10.81
2023-03-23T20:34:00.509Z,10.82
2023-03-23T20:36:36.779Z,10.90
2023-03-23T20:39:06.015Z,11.01
2023-03-23T20:41:36.214Z,11.00
2023-03-23T20:44:04.070Z,10.87
2023-03-23T20:46:31.439Z,10.74
2023-03-23T20:48:58.194Z,10.64
2023-03-23T20:51:24.853Z,10.58
2023-03-23T20:53:51.651Z,10.63
2023-03-23T20:56:19.721Z,10.63
2023-03-23T20:58:47.287Z,10.63
2023-03-23T21:01:15.816Z,10.52
2023-03-23T21:03:42.632Z,10.46
2023-03-23T21:06:10.773Z,10.47
2023-03-23T21:08:40.040Z,10.52
2023-03-23T21:11:08.849Z,10.43
2023-03-23T21:13:36.392Z,10.50
2023-03-23T21:16:05.191Z,10.55
2023-03-23T21:18:32.145Z,10.53
2023-03-23T21:21:00.344Z,10.42
2023-03-23T21:23:29.573Z,10.21
2023-03-23T21:26:02.200Z,10.09
2023-03-23T21:28:28.812Z,9.98
2023-03-23T21:31:00.653Z,9.66
2023-03-23T21:33:27.244Z,9.67
2023-03-23T21:35:53.823Z,9.62
2023-03-23T21:38:26.615Z,9.57
2023-03-23T21:40:54.558Z,9.36
2023-03-23T21:43:27.470Z,9.36
2023-03-23T21:45:56.893Z,9.16
2023-03-23T21:48:25.087Z,8.84
2023-03-23T21:50:52.598Z,8.73
2023-03-23T21:53:19.678Z,8.75
2023-03-23T21:55:51.236Z,8.80
2023-03-23T21:58:19.560Z,8.73
2023-03-23T22:00:49.957Z,8.68
2023-03-23T22:03:19.212Z,8.74
2023-03-23T22:05:46.527Z,8.80
2023-03-23T22:08:13.848Z,8.85
2023-03-23T22:10:43.691Z,8.94
2023-03-23T22:13:30.315Z,8.97
2023-03-23T22:15:58.554Z,8.90
2023-03-23T22:18:25.628Z,9.09
2023-03-23T22:20:52.263Z,9.11
2023-03-23T22:23:18.844Z,9.16
2023-03-23T22:25:45.447Z,9.16
2023-03-23T22:28:12.002Z,9.19
2023-03-23T22:30:38.628Z,9.16
2023-03-23T22:33:05.307Z,9.10
2023-03-23T22:35:33.803Z,9.02
2023-03-23T22:38:03.143Z,8.88
2023-03-23T22:40:31.182Z,8.75
2023-03-23T22:42:58.153Z,8.61
2023-03-23T22:45:26.157Z,8.54
2023-03-23T22:47:53.130Z,8.51
2023-03-23T22:50:21.595Z,8.16
2023-03-23T22:52:48.392Z,8.51
2023-03-23T22:55:15.004Z,8.45
2023-03-23T22:57:41.780Z,8.29
2023-03-23T23:00:14.475Z,8.20
2023-03-23T23:02:42.692Z,8.14
2023-03-23T23:05:10.790Z,8.16
2023-03-23T23:07:37.561Z,8.12
2023-03-23T23:10:05.423Z,8.11
2023-03-23T23:12:35.043Z,8.07
2023-03-23T23:15:03.766Z,8.00
2023-03-23T23:17:32.110Z,8.12
2023-03-23T23:20:01.037Z,8.06
2023-03-23T23:22:27.649Z,8.13
2023-03-23T23:24:54.580Z,8.13
2023-03-23T23:27:21.270Z,8.16
2023-03-23T23:29:47.891Z,8.17
2023-03-23T23:32:14.739Z,8.17
2023-03-23T23:34:41.519Z,8.12
2023-03-23T23:37:09.045Z,8.05
2023-03-23T23:39:38.336Z,7.73
2023-03-23T23:42:05.939Z,7.59
2023-03-23T23:44:32.686Z,7.53
2023-03-23T23:46:59.310Z,7.44
2023-03-23T23:49:28.630Z,7.37
2023-03-23T23:51:56.438Z,7.50
2023-03-23T23:54:29.570Z,7.39
2023-03-23T23:57:00.316Z,7.50
2023-03-23T23:59:28.844Z,7.51
